sensor_id;sensor_type;location;lat;lon;timestamp;pressure;altitude;pressure_sealevel;temperature;humidity
66547;BME280;53400;50.364;14.874;2023-07-29T00:00:04;98084.56;;;18.06;100.00
66547;BME280;53400;50.364;14.874;2023-07-29T00:02:31;98091.50;;;17.98;100.00
66547;BME280;53400;50.364;14.874;2023-07-29T00:04:57;98083.44;;;17.84;100.00
66547;BME280;53400;50.364;14.874;2023-07-29T00:07:25;98087.47;;;17.87;100.00
66547;BME280;53400;50.364;14.874;2023-07-29T00:09:52;98073.84;;;18.01;100.00
66547;BME280;53400;50.364;14.874;2023-07-29T00:12:19;98079.53;;;18.13;100.00
66547;BME280;53400;50.364;14.874;2023-07-29T00:14:44;98085.50;;;18.24;100.00
66547;BME280;53400;50.364;14.874;2023-07-29T00:17:10;98085.44;;;18.15;100.00
66547;BME280;53400;50.364;14.874;2023-07-29T00:19:37;98088.47;;;18.36;99.66
66547;BME280;53400;50.364;14.874;2023-07-29T00:22:04;98087.13;;;18.47;98.64
66547;BME280;53400;50.364;14.874;2023-07-29T00:24:30;98086.44;;;18.42;98.93
66547;BME280;53400;50.364;14.874;2023-07-29T00:26:59;98084.13;;;17.76;100.00
66547;BME280;53400;50.364;14.874;2023-07-29T00:29:25;98089.78;;;17.66;100.00
66547;BME280;53400;50.364;14.874;2023-07-29T00:31:51;98083.16;;;18.08;100.00
66547;BME280;53400;50.364;14.874;2023-07-29T00:34:17;98083.66;;;18.33;99.37
66547;BME280;53400;50.364;14.874;2023-07-29T00:36:45;98086.94;;;18.21;99.16
66547;BME280;53400;50.364;14.874;2023-07-29T00:39:11;98088.03;;;18.20;99.73
66547;BME280;53400;50.364;14.874;2023-07-29T00:41:39;98082.47;;;18.25;98.92
66547;BME280;53400;50.364;14.874;2023-07-29T00:44:06;98085.75;;;18.36;95.75
66547;BME280;53400;50.364;14.874;2023-07-29T00:46:34;98087.41;;;18.46;95.13
66547;BME280;53400;50.364;14.874;2023-07-29T00:49:03;98086.09;;;18.43;96.46
66547;BME280;53400;50.364;14.874;2023-07-29T00:51:30;98078.34;;;18.28;97.17
66547;BME280;53400;50.364;14.874;2023-07-29T00:53:56;98079.94;;;18.29;98.43
66547;BME280;53400;50.364;14.874;2023-07-29T00:56:24;98066.09;;;18.30;98.35
66547;BME280;53400;50.364;14.874;2023-07-29T00:58:50;98077.25;;;18.29;99.38
66547;BME280;53400;50.364;14.874;2023-07-29T01:01:19;98080.84;;;18.38;98.45
66547;BME280;53400;50.364;14.874;2023-07-29T01:03:46;98080.56;;;18.48;98.11
66547;BME280;53400;50.364;14.874;2023-07-29T01:06:18;98073.69;;;18.42;98.30
66547;BME280;53400;50.364;14.874;2023-07-29T01:08:53;98072.00;;;18.10;100.00
66547;BME280;53400;50.364;14.874;2023-07-29T01:11:36;98080.03;;;17.93;100.00
66547;BME280;53400;50.364;14.874;2023-07-29T01:14:14;98075.53;;;17.74;100.00
66547;BME280;53400;50.364;14.874;2023-07-29T01:16:51;98071.88;;;17.93;100.00
66547;BME280;53400;50.364;14.874;2023-07-29T01:19:29;98078.44;;;17.78;100.00
66547;BME280;53400;50.364;14.874;2023-07-29T01:22:07;98073.63;;;17.61;100.00
66547;BME280;53400;50.364;14.874;2023-07-29T01:24:35;98077.31;;;17.65;100.00
66547;BME280;53400;50.364;14.874;2023-07-29T01:27:02;98069.56;;;17.36;100.00
66547;BME280;53400;50.364;14.874;2023-07-29T01:29:30;98075.38;;;17.15;100.00
66547;BME280;53400;50.364;14.874;2023-07-29T01:32:01;98081.50;;;17.21;100.00
66547;BME280;53400;50.364;14.874;2023-07-29T01:34:32;98076.88;;;17.22;100.00
66547;BME280;53400;50.364;14.874;2023-07-29T01:37:02;98062.53;;;17.49;100.00
66547;BME280;53400;50.364;14.874;2023-07-29T01:39:32;98068.03;;;17.57;100.00
66547;BME280;53400;50.364;14.874;2023-07-29T01:42:03;98078.66;;;17.54;100.00
66547;BME280;53400;50.364;14.874;2023-07-29T01:44:30;98068.91;;;17.66;100.00
66547;BME280;53400;50.364;14.874;2023-07-29T01:46:56;98080.31;;;17.91;100.00
66547;BME280;53400;50.364;14.874;2023-07-29T01:49:23;98083.19;;;17.95;100.00
66547;BME280;53400;50.364;14.874;2023-07-29T01:51:49;98081.41;;;17.26;100.00
66547;BME280;53400;50.364;14.874;2023-07-29T01:54:15;98079.91;;;17.20;100.00
66547;BME280;53400;50.364;14.874;2023-07-29T01:56:42;98074.88;;;17.27;100.00
66547;BME280;53400;50.364;14.874;2023-07-29T01:59:09;98082.09;;;17.46;100.00
66547;BME280;53400;50.364;14.874;2023-07-29T02:01:35;98087.50;;;17.59;100.00
66547;BME280;53400;50.364;14.874;2023-07-29T02:04:01;98083.56;;;17.65;100.00
66547;BME280;53400;50.364;14.874;2023-07-29T02:06:27;98087.94;;;17.89;100.00
66547;BME280;53400;50.364;14.874;2023-07-29T02:08:54;98092.75;;;17.92;100.00
66547;BME280;53400;50.364;14.874;2023-07-29T02:11:21;98087.47;;;17.87;100.00
66547;BME280;53400;50.364;14.874;2023-07-29T02:13:52;98088.69;;;17.81;100.00
66547;BME280;53400;50.364;14.874;2023-07-29T02:16:20;98089.88;;;17.61;100.00
66547;BME280;53400;50.364;14.874;2023-07-29T02:18:48;98080.97;;;17.60;100.00
66547;BME280;53400;50.364;14.874;2023-07-29T02:21:15;98078.53;;;17.73;100.00
66547;BME280;53400;50.364;14.874;2023-07-29T02:23:42;98082.72;;;17.93;100.00
66547;BME280;53400;50.364;14.874;2023-07-29T02:26:09;98083.94;;;17.73;100.00
66547;BME280;53400;50.364;14.874;2023-07-29T02:28:36;98078.88;;;17.43;100.00
66547;BME280;53400;50.364;14.874;2023-07-29T02:31:14;98081.75;;;17.75;100.00
66547;BME280;53400;50.364;14.874;2023-07-29T02:33:41;98090.16;;;17.87;100.00
66547;BME280;53400;50.364;14.874;2023-07-29T02:36:08;98078.19;;;18.02;100.00
66547;BME280;53400;50.364;14.874;2023-07-29T02:38:34;98085.38;;;18.06;100.00
66547;BME280;53400;50.364;14.874;2023-07-29T02:41:00;98078.22;;;18.10;100.00
66547;BME280;53400;50.364;14.874;2023-07-29T02:43:27;98080.31;;;18.14;100.00
66547;BME280;53400;50.364;14.874;2023-07-29T02:45:53;98082.50;;;17.89;100.00
66547;BME280;53400;50.364;14.874;2023-07-29T02:48:19;98089.28;;;17.78;100.00
66547;BME280;53400;50.364;14.874;2023-07-29T02:50:47;98075.97;;;17.54;100.00
66547;BME280;53400;50.364;14.874;2023-07-29T02:53:13;98080.88;;;17.52;100.00
66547;BME280;53400;50.364;14.874;2023-07-29T02:55:39;98073.38;;;17.21;100.00
66547;BME280;53400;50.364;14.874;2023-07-29T02:58:05;98083.91;;;17.36;100.00
66547;BME280;53400;50.364;14.874;2023-07-29T03:00:32;98087.22;;;17.33;100.00
66547;BME280;53400;50.364;14.874;2023-07-29T03:02:58;98082.63;;;17.20;100.00
66547;BME280;53400;50.364;14.874;2023-07-29T03:05:27;98079.69;;;17.30;100.00
66547;BME280;53400;50.364;14.874;2023-07-29T03:07:54;98084.78;;;17.46;100.00
66547;BME280;53400;50.364;14.874;2023-07-29T03:10:21;98088.00;;;17.48;100.00
66547;BME280;53400;50.364;14.874;2023-07-29T03:12:48;98092.66;;;17.70;100.00
66547;BME280;53400;50.364;14.874;2023-07-29T03:15:15;98095.38;;;17.70;100.00
66547;BME280;53400;50.364;14.874;2023-07-29T03:17:41;98095.00;;;17.49;100.00
66547;BME280;53400;50.364;14.874;2023-07-29T03:20:08;98088.38;;;17.55;100.00
66547;BME280;53400;50.364;14.874;2023-07-29T03:22:34;98090.66;;;17.75;100.00
66547;BME280;53400;50.364;14.874;2023-07-29T03:25:03;98090.16;;;17.73;100.00
66547;BME280;53400;50.364;14.874;2023-07-29T03:27:31;98093.59;;;17.79;100.00
66547;BME280;53400;50.364;14.874;2023-07-29T03:30:00;98090.84;;;17.93;100.00
66547;BME280;53400;50.364;14.874;2023-07-29T03:32:26;98094.97;;;17.90;100.00
66547;BME280;53400;50.364;14.874;2023-07-29T03:34:53;98083.09;;;18.00;100.00
66547;BME280;53400;50.364;14.874;2023-07-29T03:37:20;98094.09;;;17.81;100.00
66547;BME280;53400;50.364;14.874;2023-07-29T03:39:47;98090.53;;;17.30;100.00
66547;BME280;53400;50.364;14.874;2023-07-29T03:42:15;98089.91;;;16.92;100.00
66547;BME280;53400;50.364;14.874;2023-07-29T03:44:42;98089.72;;;17.02;100.00
66547;BME280;53400;50.364;14.874;2023-07-29T03:47:07;98093.22;;;17.03;100.00
66547;BME280;53400;50.364;14.874;2023-07-29T03:49:34;98091.94;;;17.14;100.00
66547;BME280;53400;50.364;14.874;2023-07-29T03:52:00;98088.81;;;16.93;100.00
66547;BME280;53400;50.364;14.874;2023-07-29T03:54:26;98092.00;;;16.95;100.00
66547;BME280;53400;50.364;14.874;2023-07-29T03:56:52;98083.19;;;17.03;100.00
66547;BME280;53400;50.364;14.874;2023-07-29T03:59:20;98083.63;;;17.10;100.00
66547;BME280;53400;50.364;14.874;2023-07-29T04:01:48;98086.22;;;17.29;100.00
66547;BME280;53400;50.364;14.874;2023-07-29T04:04:15;98087.50;;;17.18;100.00
66547;BME280;53400;50.364;14.874;2023-07-29T04:06:41;98090.41;;;17.22;100.00
66547;BME280;53400;50.364;14.874;2023-07-29T04:09:07;98088.59;;;17.31;100.00
66547;BME280;53400;50.364;14.874;2023-07-29T04:11:34;98092.00;;;17.50;100.00
66547;BME280;53400;50.364;14.874;2023-07-29T04:14:00;98094.59;;;17.69;100.00
66547;BME280;53400;50.364;14.874;2023-07-29T04:16:28;98092.63;;;18.20;100.00
66547;BME280;53400;50.364;14.874;2023-07-29T04:18:55;98102.56;;;18.69;100.00
66547;BME280;53400;50.364;14.874;2023-07-29T04:21:21;98105.41;;;19.27;100.00
66547;BME280;53400;50.364;14.874;2023-07-29T04:23:47;98106.81;;;19.90;97.43
66547;BME280;53400;50.364;14.874;2023-07-29T04:26:13;98117.06;;;20.28;94.22
66547;BME280;53400;50.364;14.874;2023-07-29T04:28:40;98116.28;;;20.36;91.62
66547;BME280;53400;50.364;14.874;2023-07-29T04:31:06;98107.47;;;20.13;91.62
66547;BME280;53400;50.364;14.874;2023-07-29T04:33:34;98101.88;;;20.01;92.50
66547;BME280;53400;50.364;14.874;2023-07-29T04:36:00;98103.81;;;20.00;92.82
66547;BME280;53400;50.364;14.874;2023-07-29T04:38:30;98107.16;;;19.88;93.78
66547;BME280;53400;50.364;14.874;2023-07-29T04:41:02;98119.94;;;20.23;92.31
66547;BME280;53400;50.364;14.874;2023-07-29T04:43:31;98111.75;;;20.66;90.66
66547;BME280;53400;50.364;14.874;2023-07-29T04:45:57;98120.41;;;20.68;89.57
66547;BME280;53400;50.364;14.874;2023-07-29T04:48:24;98123.63;;;20.61;90.38
66547;BME280;53400;50.364;14.874;2023-07-29T04:50:52;98122.94;;;20.82;88.99
66547;BME280;53400;50.364;14.874;2023-07-29T04:53:18;98120.53;;;20.80;88.71
66547;BME280;53400;50.364;14.874;2023-07-29T04:55:44;98121.19;;;20.77;88.96
66547;BME280;53400;50.364;14.874;2023-07-29T04:58:11;98122.47;;;20.80;88.28
66547;BME280;53400;50.364;14.874;2023-07-29T05:00:37;98117.38;;;20.70;88.89
66547;BME280;53400;50.364;14.874;2023-07-29T05:03:03;98117.69;;;20.59;89.05
66547;BME280;53400;50.364;14.874;2023-07-29T05:05:29;98120.81;;;20.88;87.50
66547;BME280;53400;50.364;14.874;2023-07-29T05:07:56;98120.88;;;20.79;88.65
66547;BME280;53400;50.364;14.874;2023-07-29T05:10:23;98117.44;;;21.46;86.23
66547;BME280;53400;50.364;14.874;2023-07-29T05:12:49;98120.91;;;21.85;83.47
66547;BME280;53400;50.364;14.874;2023-07-29T05:15:18;98123.19;;;21.74;83.88
66547;BME280;53400;50.364;14.874;2023-07-29T05:17:45;98125.53;;;21.64;83.85
66547;BME280;53400;50.364;14.874;2023-07-29T05:20:11;98120.72;;;21.61;84.35
66547;BME280;53400;50.364;14.874;2023-07-29T05:22:38;98121.28;;;21.96;83.60
66547;BME280;53400;50.364;14.874;2023-07-29T05:25:06;98120.28;;;22.42;81.86
66547;BME280;53400;50.364;14.874;2023-07-29T05:27:34;98125.06;;;22.45;81.06
66547;BME280;53400;50.364;14.874;2023-07-29T05:30:01;98122.03;;;22.26;82.25
66547;BME280;53400;50.364;14.874;2023-07-29T05:32:27;98127.53;;;22.59;80.62
66547;BME280;53400;50.364;14.874;2023-07-29T05:34:54;98127.00;;;22.45;80.73
66547;BME280;53400;50.364;14.874;2023-07-29T05:37:20;98126.94;;;22.54;80.74
66547;BME280;53400;50.364;14.874;2023-07-29T05:39:47;98120.78;;;22.90;79.64
66547;BME280;53400;50.364;14.874;2023-07-29T05:42:15;98114.25;;;22.82;78.78
66547;BME280;53400;50.364;14.874;2023-07-29T05:44:42;98118.81;;;23.24;77.97
66547;BME280;53400;50.364;14.874;2023-07-29T05:47:08;98124.63;;;23.34;77.45
66547;BME280;53400;50.364;14.874;2023-07-29T05:49:37;98121.56;;;23.73;76.24
66547;BME280;53400;50.364;14.874;2023-07-29T05:52:10;98115.31;;;22.90;77.98
66547;BME280;53400;50.364;14.874;2023-07-29T05:54:37;98118.66;;;22.96;78.84
66547;BME280;53400;50.364;14.874;2023-07-29T05:57:07;98113.22;;;23.20;78.21
66547;BME280;53400;50.364;14.874;2023-07-29T05:59:38;98112.75;;;23.06;78.21
66547;BME280;53400;50.364;14.874;2023-07-29T06:02:06;98111.44;;;22.91;78.39
66547;BME280;53400;50.364;14.874;2023-07-29T06:04:34;98115.19;;;22.86;78.80
66547;BME280;53400;50.364;14.874;2023-07-29T06:07:00;98118.31;;;23.09;78.54
66547;BME280;53400;50.364;14.874;2023-07-29T06:09:28;98119.59;;;23.36;78.34
66547;BME280;53400;50.364;14.874;2023-07-29T06:11:53;98111.84;;;23.63;76.43
66547;BME280;53400;50.364;14.874;2023-07-29T06:14:21;98113.00;;;23.50;76.18
66547;BME280;53400;50.364;14.874;2023-07-29T06:16:53;98114.72;;;23.79;76.39
66547;BME280;53400;50.364;14.874;2023-07-29T06:19:20;98121.88;;;23.84;75.01
66547;BME280;53400;50.364;14.874;2023-07-29T06:21:49;98117.28;;;24.00;74.18
66547;BME280;53400;50.364;14.874;2023-07-29T06:24:17;98117.75;;;24.02;74.07
66547;BME280;53400;50.364;14.874;2023-07-29T06:26:43;98122.94;;;24.07;74.30
66547;BME280;53400;50.364;14.874;2023-07-29T06:29:10;98117.63;;;24.11;73.71
66547;BME280;53400;50.364;14.874;2023-07-29T06:31:36;98110.28;;;24.15;73.96
66547;BME280;53400;50.364;14.874;2023-07-29T06:34:04;98112.66;;;24.16;73.10
66547;BME280;53400;50.364;14.874;2023-07-29T06:36:31;98110.84;;;24.20;73.84
66547;BME280;53400;50.364;14.874;2023-07-29T06:38:57;98110.81;;;24.33;73.85
66547;BME280;53400;50.364;14.874;2023-07-29T06:41:23;98111.66;;;24.49;71.80
66547;BME280;53400;50.364;14.874;2023-07-29T06:43:50;98111.75;;;24.81;70.63
66547;BME280;53400;50.364;14.874;2023-07-29T06:46:15;98110.25;;;24.99;70.30
66547;BME280;53400;50.364;14.874;2023-07-29T06:48:42;98111.97;;;25.20;70.59
66547;BME280;53400;50.364;14.874;2023-07-29T06:51:10;98101.72;;;25.16;70.61
66547;BME280;53400;50.364;14.874;2023-07-29T06:53:37;98106.28;;;25.44;68.20
66547;BME280;53400;50.364;14.874;2023-07-29T06:56:03;98111.50;;;25.49;69.52
66547;BME280;53400;50.364;14.874;2023-07-29T06:58:30;98101.84;;;25.55;68.28
66547;BME280;53400;50.364;14.874;2023-07-29T07:00:56;98090.22;;;25.11;69.19
66547;BME280;53400;50.364;14.874;2023-07-29T07:03:22;98095.06;;;25.02;69.93
66547;BME280;53400;50.364;14.874;2023-07-29T07:05:48;98097.63;;;24.94;69.85
66547;BME280;53400;50.364;14.874;2023-07-29T07:08:17;98098.19;;;24.56;70.25
66547;BME280;53400;50.364;14.874;2023-07-29T07:10:42;98094.38;;;24.45;71.81
66547;BME280;53400;50.364;14.874;2023-07-29T07:13:09;98100.31;;;24.63;70.93
66547;BME280;53400;50.364;14.874;2023-07-29T07:15:34;98092.09;;;24.35;70.75
66547;BME280;53400;50.364;14.874;2023-07-29T07:18:01;98096.53;;;24.39;70.99
66547;BME280;53400;50.364;14.874;2023-07-29T07:20:26;98092.88;;;24.07;71.97
66547;BME280;53400;50.364;14.874;2023-07-29T07:22:53;98095.06;;;24.42;72.70
66547;BME280;53400;50.364;14.874;2023-07-29T07:25:20;98097.34;;;24.84;72.08
66547;BME280;53400;50.364;14.874;2023-07-29T07:27:46;98098.09;;;24.40;71.13
66547;BME280;53400;50.364;14.874;2023-07-29T07:30:12;98104.34;;;23.72;73.40
66547;BME280;53400;50.364;14.874;2023-07-29T07:32:38;98106.63;;;23.70;74.77
66547;BME280;53400;50.364;14.874;2023-07-29T07:35:04;98099.75;;;23.89;73.22
66547;BME280;53400;50.364;14.874;2023-07-29T07:37:31;98097.13;;;24.04;73.05
66547;BME280;53400;50.364;14.874;2023-07-29T07:39:57;98101.03;;;23.54;74.23
66547;BME280;53400;50.364;14.874;2023-07-29T07:42:25;98092.16;;;23.70;74.58
66547;BME280;53400;50.364;14.874;2023-07-29T07:44:51;98093.63;;;23.79;74.58
66547;BME280;53400;50.364;14.874;2023-07-29T07:47:17;98079.59;;;23.93;74.71
66547;BME280;53400;50.364;14.874;2023-07-29T07:49:44;98079.41;;;23.86;73.44
66547;BME280;53400;50.364;14.874;2023-07-29T07:52:10;98084.28;;;24.21;72.23
66547;BME280;53400;50.364;14.874;2023-07-29T07:54:36;98078.63;;;24.14;71.95
66547;BME280;53400;50.364;14.874;2023-07-29T07:57:03;98076.16;;;24.24;71.33
66547;BME280;53400;50.364;14.874;2023-07-29T07:59:32;98075.75;;;24.22;72.92
66547;BME280;53400;50.364;14.874;2023-07-29T08:01:58;98072.94;;;24.07;72.00
66547;BME280;53400;50.364;14.874;2023-07-29T08:04:25;98060.75;;;24.04;72.08
66547;BME280;53400;50.364;14.874;2023-07-29T08:06:52;98059.13;;;24.43;72.01
66547;BME280;53400;50.364;14.874;2023-07-29T08:09:18;98062.69;;;24.44;71.30
66547;BME280;53400;50.364;14.874;2023-07-29T08:11:46;98054.13;;;24.77;70.52
66547;BME280;53400;50.364;14.874;2023-07-29T08:14:12;98053.69;;;24.03;71.79
66547;BME280;53400;50.364;14.874;2023-07-29T08:16:41;98059.59;;;23.77;72.61
66547;BME280;53400;50.364;14.874;2023-07-29T08:19:07;98048.94;;;23.23;72.81
66547;BME280;53400;50.364;14.874;2023-07-29T08:21:36;98046.41;;;23.42;73.38
66547;BME280;53400;50.364;14.874;2023-07-29T08:24:02;98035.81;;;23.41;73.71
66547;BME280;53400;50.364;14.874;2023-07-29T08:26:30;98046.22;;;24.16;72.35
66547;BME280;53400;50.364;14.874;2023-07-29T08:28:59;98041.22;;;24.46;68.76
66547;BME280;53400;50.364;14.874;2023-07-29T08:31:27;98038.66;;;24.25;68.02
66547;BME280;53400;50.364;14.874;2023-07-29T08:33:56;98036.53;;;23.90;69.11
66547;BME280;53400;50.364;14.874;2023-07-29T08:36:24;98024.91;;;24.37;69.11
66547;BME280;53400;50.364;14.874;2023-07-29T08:38:53;98033.34;;;24.44;68.63
66547;BME280;53400;50.364;14.874;2023-07-29T08:41:27;98036.81;;;24.89;66.73
66547;BME280;53400;50.364;14.874;2023-07-29T08:44:06;98043.72;;;24.83;66.18
66547;BME280;53400;50.364;14.874;2023-07-29T08:46:35;98050.75;;;24.52;67.94
66547;BME280;53400;50.364;14.874;2023-07-29T08:49:04;98048.47;;;24.54;67.94
66547;BME280;53400;50.364;14.874;2023-07-29T08:51:32;98051.31;;;24.30;67.98
66547;BME280;53400;50.364;14.874;2023-07-29T08:53:58;98045.88;;;24.17;67.48
66547;BME280;53400;50.364;14.874;2023-07-29T08:56:25;98051.97;;;24.11;68.35
66547;BME280;53400;50.364;14.874;2023-07-29T08:58:52;98044.22;;;23.72;69.33
66547;BME280;53400;50.364;14.874;2023-07-29T09:01:18;98037.16;;;23.71;69.69
66547;BME280;53400;50.364;14.874;2023-07-29T09:03:44;98045.72;;;23.98;69.38
66547;BME280;53400;50.364;14.874;2023-07-29T09:06:14;98040.84;;;23.91;69.67
66547;BME280;53400;50.364;14.874;2023-07-29T09:08:40;98038.47;;;23.90;69.30
66547;BME280;53400;50.364;14.874;2023-07-29T09:11:07;98048.16;;;23.87;69.99
66547;BME280;53400;50.364;14.874;2023-07-29T09:13:34;98047.75;;;24.01;69.79
66547;BME280;53400;50.364;14.874;2023-07-29T09:16:01;98051.97;;;24.11;69.11
66547;BME280;53400;50.364;14.874;2023-07-29T09:18:27;98050.16;;;24.31;70.00
66547;BME280;53400;50.364;14.874;2023-07-29T09:20:59;98047.06;;;24.32;69.23
66547;BME280;53400;50.364;14.874;2023-07-29T09:23:28;98049.13;;;24.35;70.54
66547;BME280;53400;50.364;14.874;2023-07-29T09:26:03;98043.84;;;24.14;68.53
66547;BME280;53400;50.364;14.874;2023-07-29T09:28:33;98034.31;;;24.52;68.09
66547;BME280;53400;50.364;14.874;2023-07-29T09:31:00;98030.50;;;24.41;67.44
66547;BME280;53400;50.364;14.874;2023-07-29T09:33:26;98034.88;;;24.58;67.86
66547;BME280;53400;50.364;14.874;2023-07-29T09:35:52;98031.63;;;24.84;66.67
66547;BME280;53400;50.364;14.874;2023-07-29T09:38:27;98038.78;;;24.72;66.88
66547;BME280;53400;50.364;14.874;2023-07-29T09:40:55;98039.47;;;23.97;67.46
66547;BME280;53400;50.364;14.874;2023-07-29T09:43:25;98037.13;;;23.84;68.09
66547;BME280;53400;50.364;14.874;2023-07-29T09:45:52;98047.56;;;24.22;68.23
66547;BME280;53400;50.364;14.874;2023-07-29T09:48:22;98051.91;;;24.51;66.92
66547;BME280;53400;50.364;14.874;2023-07-29T09:50:48;98049.88;;;23.79;68.96
66547;BME280;53400;50.364;14.874;2023-07-29T09:53:15;98055.81;;;24.10;68.73
66547;BME280;53400;50.364;14.874;2023-07-29T09:55:47;98057.06;;;24.12;68.12
66547;BME280;53400;50.364;14.874;2023-07-29T09:58:19;98054.97;;;23.93;69.36
66547;BME280;53400;50.364;14.874;2023-07-29T10:00:48;98061.50;;;24.17;69.56
66547;BME280;53400;50.364;14.874;2023-07-29T10:03:15;98062.25;;;24.30;68.91
66547;BME280;53400;50.364;14.874;2023-07-29T10:05:42;98063.50;;;24.32;69.21
66547;BME280;53400;50.364;14.874;2023-07-29T10:08:10;98064.81;;;24.22;68.31
66547;BME280;53400;50.364;14.874;2023-07-29T10:10:38;98055.41;;;24.08;69.56
66547;BME280;53400;50.364;14.874;2023-07-29T10:13:06;98058.97;;;24.24;68.39
66547;BME280;53400;50.364;14.874;2023-07-29T10:15:33;98054.00;;;24.14;68.53
66547;BME280;53400;50.364;14.874;2023-07-29T10:17:59;98054.03;;;24.30;67.27
66547;BME280;53400;50.364;14.874;2023-07-29T10:20:27;98052.94;;;24.46;67.43
66547;BME280;53400;50.364;14.874;2023-07-29T10:22:56;98046.91;;;25.01;66.14
66547;BME280;53400;50.364;14.874;2023-07-29T10:25:28;98034.53;;;25.07;65.08
66547;BME280;53400;50.364;14.874;2023-07-29T10:28:06;98035.50;;;25.66;63.54
66547;BME280;53400;50.364;14.874;2023-07-29T10:30:33;98031.28;;;25.88;62.31
66547;BME280;53400;50.364;14.874;2023-07-29T10:33:03;98027.13;;;25.58;62.48
66547;BME280;53400;50.364;14.874;2023-07-29T10:35:30;98030.81;;;25.66;62.35
66547;BME280;53400;50.364;14.874;2023-07-29T10:37:59;98020.09;;;25.42;62.43
66547;BME280;53400;50.364;14.874;2023-07-29T10:40:26;98032.44;;;25.51;62.91
66547;BME280;53400;50.364;14.874;2023-07-29T10:43:11;98023.34;;;25.47;62.60
66547;BME280;53400;50.364;14.874;2023-07-29T10:45:39;98028.81;;;25.47;62.86
66547;BME280;53400;50.364;14.874;2023-07-29T10:48:06;98018.41;;;25.72;62.34
66547;BME280;53400;50.364;14.874;2023-07-29T10:50:34;98020.63;;;25.67;63.06
66547;BME280;53400;50.364;14.874;2023-07-29T10:53:01;98016.66;;;25.45;64.49
66547;BME280;53400;50.364;14.874;2023-07-29T10:55:29;98011.72;;;25.03;63.39
66547;BME280;53400;50.364;14.874;2023-07-29T10:58:12;98018.59;;;25.28;64.35
66547;BME280;53400;50.364;14.874;2023-07-29T11:00:39;98009.53;;;25.79;62.82
66547;BME280;53400;50.364;14.874;2023-07-29T11:03:07;98009.44;;;25.05;64.01
66547;BME280;53400;50.364;14.874;2023-07-29T11:05:45;97997.50;;;25.13;63.66
66547;BME280;53400;50.364;14.874;2023-07-29T11:08:19;97985.31;;;25.46;63.66
66547;BME280;53400;50.364;14.874;2023-07-29T11:10:58;97993.66;;;25.69;63.50
66547;BME280;53400;50.364;14.874;2023-07-29T11:13:27;97991.00;;;25.92;62.54
66547;BME280;53400;50.364;14.874;2023-07-29T11:15:54;97978.97;;;25.96;61.94
66547;BME280;53400;50.364;14.874;2023-07-29T11:18:22;97978.13;;;25.96;62.09
66547;BME280;53400;50.364;14.874;2023-07-29T11:20:48;97973.28;;;25.50;62.96
66547;BME280;53400;50.364;14.874;2023-07-29T11:23:15;97965.34;;;25.64;63.25
66547;BME280;53400;50.364;14.874;2023-07-29T11:25:42;97967.91;;;25.93;63.37
66547;BME280;53400;50.364;14.874;2023-07-29T11:28:09;97955.78;;;25.94;61.87
66547;BME280;53400;50.364;14.874;2023-07-29T11:30:39;97956.53;;;26.14;62.17
66547;BME280;53400;50.364;14.874;2023-07-29T11:33:05;97944.78;;;26.13;61.30
66547;BME280;53400;50.364;14.874;2023-07-29T11:35:32;97947.66;;;25.62;63.02
66547;BME280;53400;50.364;14.874;2023-07-29T11:37:59;97950.66;;;25.53;62.28
66547;BME280;53400;50.364;14.874;2023-07-29T11:40:26;97945.13;;;25.34;62.41
66547;BME280;53400;50.364;14.874;2023-07-29T11:42:53;97956.88;;;25.34;63.10
66547;BME280;53400;50.364;14.874;2023-07-29T11:45:21;97959.69;;;25.18;63.61
66547;BME280;53400;50.364;14.874;2023-07-29T11:47:50;97954.53;;;24.50;68.47
66547;BME280;53400;50.364;14.874;2023-07-29T11:50:17;97955.94;;;23.59;73.68
66547;BME280;53400;50.364;14.874;2023-07-29T11:52:46;97947.63;;;22.54;78.43
66547;BME280;53400;50.364;14.874;2023-07-29T11:55:17;97958.34;;;22.14;80.79
66547;BME280;53400;50.364;14.874;2023-07-29T11:57:45;97974.81;;;21.84;85.24
66547;BME280;53400;50.364;14.874;2023-07-29T12:00:14;97993.25;;;21.16;92.77
66547;BME280;53400;50.364;14.874;2023-07-29T12:02:42;98019.09;;;21.10;93.74
66547;BME280;53400;50.364;14.874;2023-07-29T12:05:14;98020.00;;;20.11;97.86
66547;BME280;53400;50.364;14.874;2023-07-29T12:07:43;98025.88;;;19.35;100.00
66547;BME280;53400;50.364;14.874;2023-07-29T12:10:11;98036.13;;;18.58;100.00
66547;BME280;53400;50.364;14.874;2023-07-29T12:12:44;98029.56;;;18.28;100.00
66547;BME280;53400;50.364;14.874;2023-07-29T12:15:22;98012.56;;;18.67;100.00
66547;BME280;53400;50.364;14.874;2023-07-29T12:17:48;98015.38;;;18.85;100.00
66547;BME280;53400;50.364;14.874;2023-07-29T12:20:19;98022.44;;;18.63;100.00
66547;BME280;53400;50.364;14.874;2023-07-29T12:22:51;98021.09;;;18.52;100.00
66547;BME280;53400;50.364;14.874;2023-07-29T12:25:18;98021.13;;;18.61;100.00
66547;BME280;53400;50.364;14.874;2023-07-29T12:27:45;98024.53;;;18.35;100.00
66547;BME280;53400;50.364;14.874;2023-07-29T12:30:12;98020.44;;;18.77;100.00
66547;BME280;53400;50.364;14.874;2023-07-29T12:32:43;98016.53;;;19.01;100.00
66547;BME280;53400;50.364;14.874;2023-07-29T12:35:10;98014.59;;;18.93;100.00
66547;BME280;53400;50.364;14.874;2023-07-29T12:37:38;98018.97;;;19.11;100.00
66547;BME280;53400;50.364;14.874;2023-07-29T12:40:19;98018.34;;;19.32;100.00
66547;BME280;53400;50.364;14.874;2023-07-29T12:42:46;98013.09;;;19.27;100.00
66547;BME280;53400;50.364;14.874;2023-07-29T12:45:12;98003.34;;;19.25;100.00
66547;BME280;53400;50.364;14.874;2023-07-29T12:47:40;98005.94;;;19.39;100.00